sensor_id;sensor_type;location;lat;lon;timestamp;temperature;humidity
46416;DHT22;32620;51.704;7.822;2022-12-18T00:01:56;-9.90;99.90
46416;DHT22;32620;51.704;7.822;2022-12-18T00:04:23;-10.00;99.90
46416;DHT22;32620;51.704;7.822;2022-12-18T00:06:49;-10.00;99.90
46416;DHT22;32620;51.704;7.822;2022-12-18T00:09:14;-10.00;99.90
46416;DHT22;32620;51.704;7.822;2022-12-18T00:11:40;-9.90;99.90
46416;DHT22;32620;51.704;7.822;2022-12-18T00:14:05;-9.90;99.90
46416;DHT22;32620;51.704;7.822;2022-12-18T00:16:31;-9.90;99.90
46416;DHT22;32620;51.704;7.822;2022-12-18T00:18:58;-9.90;99.90
46416;DHT22;32620;51.704;7.822;2022-12-18T00:21:24;-9.90;99.90
46416;DHT22;32620;51.704;7.822;2022-12-18T00:23:50;-10.00;99.90
46416;DHT22;32620;51.704;7.822;2022-12-18T00:26:17;-10.00;99.90
46416;DHT22;32620;51.704;7.822;2022-12-18T00:28:43;-10.10;99.90
46416;DHT22;32620;51.704;7.822;2022-12-18T00:31:10;-10.20;99.90
46416;DHT22;32620;51.704;7.822;2022-12-18T00:33:36;-10.20;99.90
46416;DHT22;32620;51.704;7.822;2022-12-18T00:36:03;-10.30;99.90
46416;DHT22;32620;51.704;7.822;2022-12-18T00:38:29;-10.30;99.90
46416;DHT22;32620;51.704;7.822;2022-12-18T00:40:55;-10.30;99.90
46416;DHT22;32620;51.704;7.822;2022-12-18T00:43:20;-10.40;99.90
46416;DHT22;32620;51.704;7.822;2022-12-18T00:45:46;-10.40;99.90
46416;DHT22;32620;51.704;7.822;2022-12-18T00:48:11;-10.40;99.90
46416;DHT22;32620;51.704;7.822;2022-12-18T00:50:37;-10.40;99.90
46416;DHT22;32620;51.704;7.822;2022-12-18T00:53:03;-10.50;99.90
46416;DHT22;32620;51.704;7.822;2022-12-18T00:55:28;-10.50;99.90
46416;DHT22;32620;51.704;7.822;2022-12-18T00:57:54;-10.50;99.90
46416;DHT22;32620;51.704;7.822;2022-12-18T01:00:19;-10.60;99.90
46416;DHT22;32620;51.704;7.822;2022-12-18T01:02:45;-10.60;99.90
46416;DHT22;32620;51.704;7.822;2022-12-18T01:05:11;-10.60;99.90
46416;DHT22;32620;51.704;7.822;2022-12-18T01:07:37;-10.60;99.90
46416;DHT22;32620;51.704;7.822;2022-12-18T01:10:02;-10.70;99.90
46416;DHT22;32620;51.704;7.822;2022-12-18T01:12:28;-10.60;99.90
46416;DHT22;32620;51.704;7.822;2022-12-18T01:14:53;-10.60;99.90
46416;DHT22;32620;51.704;7.822;2022-12-18T01:17:19;-10.60;99.90
46416;DHT22;32620;51.704;7.822;2022-12-18T01:19:44;-10.70;99.90
46416;DHT22;32620;51.704;7.822;2022-12-18T01:22:10;-10.70;99.90
46416;DHT22;32620;51.704;7.822;2022-12-18T01:24:35;-10.70;99.90
46416;DHT22;32620;51.704;7.822;2022-12-18T01:27:01;-10.70;99.90
46416;DHT22;32620;51.704;7.822;2022-12-18T01:29:26;-10.70;99.90
46416;DHT22;32620;51.704;7.822;2022-12-18T01:31:54;-10.70;99.90
46416;DHT22;32620;51.704;7.822;2022-12-18T01:34:19;-10.70;99.90
46416;DHT22;32620;51.704;7.822;2022-12-18T01:36:45;-10.70;99.90
46416;DHT22;32620;51.704;7.822;2022-12-18T01:39:11;-10.70;99.90
46416;DHT22;32620;51.704;7.822;2022-12-18T01:41:37;-10.70;99.90
46416;DHT22;32620;51.704;7.822;2022-12-18T01:44:55;-10.70;99.90
46416;DHT22;32620;51.704;7.822;2022-12-18T01:47:08;-10.70;99.90
46416;DHT22;32620;51.704;7.822;2022-12-18T01:49:33;-10.80;99.90
46416;DHT22;32620;51.704;7.822;2022-12-18T01:51:58;-10.70;99.90
46416;DHT22;32620;51.704;7.822;2022-12-18T01:54:24;-10.70;99.90
46416;DHT22;32620;51.704;7.822;2022-12-18T01:56:49;-10.70;99.90
46416;DHT22;32620;51.704;7.822;2022-12-18T01:59:15;-10.70;99.90
46416;DHT22;32620;51.704;7.822;2022-12-18T02:01:40;-10.70;99.90
46416;DHT22;32620;51.704;7.822;2022-12-18T02:04:21;-10.60;99.90
46416;DHT22;32620;51.704;7.822;2022-12-18T02:06:49;-10.60;99.90
46416;DHT22;32620;51.704;7.822;2022-12-18T02:09:19;-10.50;99.90
46416;DHT22;32620;51.704;7.822;2022-12-18T02:14:34;-10.50;99.90
46416;DHT22;32620;51.704;7.822;2022-12-18T02:22:25;-10.50;99.90
46416;DHT22;32620;51.704;7.822;2022-12-18T02:27:37;-10.40;99.90
46416;DHT22;32620;51.704;7.822;2022-12-18T02:30:04;-10.40;99.90
46416;DHT22;32620;51.704;7.822;2022-12-18T02:32:31;-10.40;99.90
46416;DHT22;32620;51.704;7.822;2022-12-18T02:34:59;-10.40;99.90
46416;DHT22;32620;51.704;7.822;2022-12-18T02:37:25;-10.50;99.90
46416;DHT22;32620;51.704;7.822;2022-12-18T02:39:52;-10.50;99.90
46416;DHT22;32620;51.704;7.822;2022-12-18T02:42:19;-10.50;99.90
46416;DHT22;32620;51.704;7.822;2022-12-18T02:44:46;-10.50;99.90
46416;DHT22;32620;51.704;7.822;2022-12-18T02:47:12;-10.50;99.90
46416;DHT22;32620;51.704;7.822;2022-12-18T02:52:32;-10.60;99.90
46416;DHT22;32620;51.704;7.822;2022-12-18T02:57:49;-10.60;99.90
46416;DHT22;32620;51.704;7.822;2022-12-18T03:00:19;-10.60;99.90
46416;DHT22;32620;51.704;7.822;2022-12-18T03:02:47;-10.60;99.90
46416;DHT22;32620;51.704;7.822;2022-12-18T03:05:16;-10.60;99.90
46416;DHT22;32620;51.704;7.822;2022-12-18T03:07:46;-10.60;99.90
46416;DHT22;32620;51.704;7.822;2022-12-18T03:10:14;-10.60;99.90
46416;DHT22;32620;51.704;7.822;2022-12-18T03:12:44;-10.60;99.90
46416;DHT22;32620;51.704;7.822;2022-12-18T03:15:13;-10.60;99.90
46416;DHT22;32620;51.704;7.822;2022-12-18T03:17:40;-10.50;99.90
46416;DHT22;32620;51.704;7.822;2022-12-18T03:20:10;-10.50;99.90
46416;DHT22;32620;51.704;7.822;2022-12-18T03:22:37;-10.50;99.90
46416;DHT22;32620;51.704;7.822;2022-12-18T03:25:04;-10.60;99.90
46416;DHT22;32620;51.704;7.822;2022-12-18T03:27:31;-10.60;99.90
46416;DHT22;32620;51.704;7.822;2022-12-18T03:30:01;-10.60;99.90
46416;DHT22;32620;51.704;7.822;2022-12-18T03:32:36;-10.60;99.90
46416;DHT22;32620;51.704;7.822;2022-12-18T03:35:03;-10.60;99.90
46416;DHT22;32620;51.704;7.822;2022-12-18T03:37:30;-10.60;99.90
46416;DHT22;32620;51.704;7.822;2022-12-18T03:39:55;-10.60;99.90
46416;DHT22;32620;51.704;7.822;2022-12-18T03:42:24;-10.60;99.90
46416;DHT22;32620;51.704;7.822;2022-12-18T03:44:55;-10.50;99.90
46416;DHT22;32620;51.704;7.822;2022-12-18T03:47:25;-10.50;99.90
46416;DHT22;32620;51.704;7.822;2022-12-18T03:52:38;-10.50;99.90
46416;DHT22;32620;51.704;7.822;2022-12-18T03:55:07;-10.50;99.90
46416;DHT22;32620;51.704;7.822;2022-12-18T03:57:34;-10.50;99.90
46416;DHT22;32620;51.704;7.822;2022-12-18T04:00:04;-10.50;99.90
46416;DHT22;32620;51.704;7.822;2022-12-18T04:02:31;-10.50;99.90
46416;DHT22;32620;51.704;7.822;2022-12-18T04:04:58;-10.50;99.90
46416;DHT22;32620;51.704;7.822;2022-12-18T04:07:24;-10.50;99.90
46416;DHT22;32620;51.704;7.822;2022-12-18T04:09:50;-10.60;99.90
46416;DHT22;32620;51.704;7.822;2022-12-18T04:12:18;-10.60;99.90
46416;DHT22;32620;51.704;7.822;2022-12-18T04:14:44;-10.60;99.90
46416;DHT22;32620;51.704;7.822;2022-12-18T04:17:10;-10.60;99.90
46416;DHT22;32620;51.704;7.822;2022-12-18T04:19:35;-10.60;99.90
46416;DHT22;32620;51.704;7.822;2022-12-18T04:22:00;-10.70;99.90
46416;DHT22;32620;51.704;7.822;2022-12-18T04:24:26;-10.70;99.90
46416;DHT22;32620;51.704;7.822;2022-12-18T04:26:52;-10.70;99.90
46416;DHT22;32620;51.704;7.822;2022-12-18T04:29:17;-10.70;99.90
46416;DHT22;32620;51.704;7.822;2022-12-18T04:31:43;-10.60;99.90
46416;DHT22;32620;51.704;7.822;2022-12-18T04:34:08;-10.60;99.90
46416;DHT22;32620;51.704;7.822;2022-12-18T04:36:34;-10.60;99.90
46416;DHT22;32620;51.704;7.822;2022-12-18T04:38:59;-10.60;99.90
46416;DHT22;32620;51.704;7.822;2022-12-18T04:41:24;-10.50;99.90
46416;DHT22;32620;51.704;7.822;2022-12-18T04:43:50;-10.60;99.90
46416;DHT22;32620;51.704;7.822;2022-12-18T04:46:15;-10.60;99.90
46416;DHT22;32620;51.704;7.822;2022-12-18T04:48:41;-10.60;99.90
46416;DHT22;32620;51.704;7.822;2022-12-18T04:51:06;-10.60;99.90
46416;DHT22;32620;51.704;7.822;2022-12-18T04:53:32;-10.60;99.90
46416;DHT22;32620;51.704;7.822;2022-12-18T04:56:13;-10.60;99.90
46416;DHT22;32620;51.704;7.822;2022-12-18T04:58:40;-10.70;99.90
46416;DHT22;32620;51.704;7.822;2022-12-18T05:01:06;-10.60;99.90
46416;DHT22;32620;51.704;7.822;2022-12-18T05:03:32;-10.60;99.90
46416;DHT22;32620;51.704;7.822;2022-12-18T05:05:58;-10.60;99.90
46416;DHT22;32620;51.704;7.822;2022-12-18T05:08:23;-10.60;99.90
46416;DHT22;32620;51.704;7.822;2022-12-18T05:10:49;-10.60;99.90
46416;DHT22;32620;51.704;7.822;2022-12-18T05:13:14;-10.60;99.90
46416;DHT22;32620;51.704;7.822;2022-12-18T05:15:40;-10.60;99.90
46416;DHT22;32620;51.704;7.822;2022-12-18T05:18:07;-10.60;99.90
46416;DHT22;32620;51.704;7.822;2022-12-18T05:20:32;-10.60;99.90
46416;DHT22;32620;51.704;7.822;2022-12-18T05:22:58;-10.40;99.90
46416;DHT22;32620;51.704;7.822;2022-12-18T05:25:24;-10.20;99.90
46416;DHT22;32620;51.704;7.822;2022-12-18T05:27:49;-10.00;99.90
46416;DHT22;32620;51.704;7.822;2022-12-18T05:30:15;-9.80;99.90
46416;DHT22;32620;51.704;7.822;2022-12-18T05:32:41;-9.70;99.90
46416;DHT22;32620;51.704;7.822;2022-12-18T05:35:07;-9.70;99.90
46416;DHT22;32620;51.704;7.822;2022-12-18T05:37:33;-9.60;99.90
46416;DHT22;32620;51.704;7.822;2022-12-18T05:39:58;-9.50;99.90
46416;DHT22;32620;51.704;7.822;2022-12-18T05:42:24;-9.40;99.90
46416;DHT22;32620;51.704;7.822;2022-12-18T05:44:49;-9.30;99.90
46416;DHT22;32620;51.704;7.822;2022-12-18T05:47:15;-9.20;99.90
46416;DHT22;32620;51.704;7.822;2022-12-18T05:49:41;-9.00;99.90
46416;DHT22;32620;51.704;7.822;2022-12-18T05:52:06;-9.00;99.90
46416;DHT22;32620;51.704;7.822;2022-12-18T05:54:31;-9.10;99.90
46416;DHT22;32620;51.704;7.822;2022-12-18T05:56:57;-9.30;99.90
46416;DHT22;32620;51.704;7.822;2022-12-18T05:59:23;-9.50;99.90
46416;DHT22;32620;51.704;7.822;2022-12-18T06:01:48;-9.60;99.90
46416;DHT22;32620;51.704;7.822;2022-12-18T06:04:14;-9.70;99.90
46416;DHT22;32620;51.704;7.822;2022-12-18T06:06:39;-9.80;99.90
46416;DHT22;32620;51.704;7.822;2022-12-18T06:09:05;-9.90;99.90
46416;DHT22;32620;51.704;7.822;2022-12-18T06:11:36;-9.90;99.90
46416;DHT22;32620;51.704;7.822;2022-12-18T06:14:02;-9.90;99.90
46416;DHT22;32620;51.704;7.822;2022-12-18T06:16:28;-10.00;99.90
46416;DHT22;32620;51.704;7.822;2022-12-18T06:18:57;-9.90;99.90
46416;DHT22;32620;51.704;7.822;2022-12-18T06:21:23;-9.80;99.90
46416;DHT22;32620;51.704;7.822;2022-12-18T06:23:48;-9.70;99.90
46416;DHT22;32620;51.704;7.822;2022-12-18T06:26:14;-9.50;99.90
46416;DHT22;32620;51.704;7.822;2022-12-18T06:28:39;-9.40;99.90
46416;DHT22;32620;51.704;7.822;2022-12-18T06:31:05;-9.30;99.90
46416;DHT22;32620;51.704;7.822;2022-12-18T06:33:31;-9.30;99.90
46416;DHT22;32620;51.704;7.822;2022-12-18T06:36:05;-9.20;99.90
46416;DHT22;32620;51.704;7.822;2022-12-18T06:38:31;-9.10;99.90
46416;DHT22;32620;51.704;7.822;2022-12-18T06:40:57;-9.00;99.90
46416;DHT22;32620;51.704;7.822;2022-12-18T06:43:23;-8.90;99.90
46416;DHT22;32620;51.704;7.822;2022-12-18T06:45:48;-8.80;99.90
46416;DHT22;32620;51.704;7.822;2022-12-18T06:48:18;-8.80;99.90
46416;DHT22;32620;51.704;7.822;2022-12-18T06:50:44;-8.90;99.90
46416;DHT22;32620;51.704;7.822;2022-12-18T06:53:10;-9.00;99.90
46416;DHT22;32620;51.704;7.822;2022-12-18T06:55:35;-9.00;99.90
46416;DHT22;32620;51.704;7.822;2022-12-18T06:58:01;-8.90;99.90
46416;DHT22;32620;51.704;7.822;2022-12-18T07:00:26;-9.00;99.90
46416;DHT22;32620;51.704;7.822;2022-12-18T07:02:52;-9.00;99.90
46416;DHT22;32620;51.704;7.822;2022-12-18T07:05:17;-9.00;99.90
46416;DHT22;32620;51.704;7.822;2022-12-18T07:07:43;-9.10;99.90
46416;DHT22;32620;51.704;7.822;2022-12-18T07:10:08;-9.20;99.90
46416;DHT22;32620;51.704;7.822;2022-12-18T07:12:34;-9.30;99.90
46416;DHT22;32620;51.704;7.822;2022-12-18T07:15:00;-9.30;99.90
46416;DHT22;32620;51.704;7.822;2022-12-18T07:17:25;-9.30;99.90
46416;DHT22;32620;51.704;7.822;2022-12-18T07:19:50;-9.30;99.90
46416;DHT22;32620;51.704;7.822;2022-12-18T07:22:16;-9.30;99.90
46416;DHT22;32620;51.704;7.822;2022-12-18T07:24:41;-9.20;99.90
46416;DHT22;32620;51.704;7.822;2022-12-18T07:27:07;-9.20;99.90
46416;DHT22;32620;51.704;7.822;2022-12-18T07:29:32;-9.00;99.90
46416;DHT22;32620;51.704;7.822;2022-12-18T07:31:58;-8.90;99.90
46416;DHT22;32620;51.704;7.822;2022-12-18T07:34:24;-8.80;99.90
46416;DHT22;32620;51.704;7.822;2022-12-18T07:36:49;-8.80;99.90
46416;DHT22;32620;51.704;7.822;2022-12-18T07:39:15;-8.80;99.90
46416;DHT22;32620;51.704;7.822;2022-12-18T07:41:40;-8.80;99.90
46416;DHT22;32620;51.704;7.822;2022-12-18T07:44:11;-8.90;99.90
46416;DHT22;32620;51.704;7.822;2022-12-18T07:46:36;-8.90;99.90
46416;DHT22;32620;51.704;7.822;2022-12-18T07:49:02;-8.90;99.90
46416;DHT22;32620;51.704;7.822;2022-12-18T07:51:27;-8.90;99.90
46416;DHT22;32620;51.704;7.822;2022-12-18T07:53:53;-8.90;99.90
46416;DHT22;32620;51.704;7.822;2022-12-18T07:56:18;-8.80;99.90
46416;DHT22;32620;51.704;7.822;2022-12-18T07:58:47;-8.80;99.90
46416;DHT22;32620;51.704;7.822;2022-12-18T08:01:13;-8.60;99.90
46416;DHT22;32620;51.704;7.822;2022-12-18T08:03:39;-8.40;99.90
46416;DHT22;32620;51.704;7.822;2022-12-18T08:06:05;-8.00;99.90
46416;DHT22;32620;51.704;7.822;2022-12-18T08:08:31;-7.50;99.90
46416;DHT22;32620;51.704;7.822;2022-12-18T08:10:57;-7.20;99.90
46416;DHT22;32620;51.704;7.822;2022-12-18T08:13:23;-6.80;99.90
46416;DHT22;32620;51.704;7.822;2022-12-18T08:16:05;-6.30;99.90
46416;DHT22;32620;51.704;7.822;2022-12-18T08:18:34;-6.10;99.90
46416;DHT22;32620;51.704;7.822;2022-12-18T08:21:16;-5.90;99.90
46416;DHT22;32620;51.704;7.822;2022-12-18T08:23:42;-5.30;99.90
46416;DHT22;32620;51.704;7.822;2022-12-18T08:26:07;-4.50;99.90
46416;DHT22;32620;51.704;7.822;2022-12-18T08:28:33;-4.10;99.90
46416;DHT22;32620;51.704;7.822;2022-12-18T08:30:59;-4.30;99.90
46416;DHT22;32620;51.704;7.822;2022-12-18T08:33:24;-4.40;99.90
46416;DHT22;32620;51.704;7.822;2022-12-18T08:35:50;-4.60;99.90
46416;DHT22;32620;51.704;7.822;2022-12-18T08:38:15;-4.70;99.90
46416;DHT22;32620;51.704;7.822;2022-12-18T08:40:41;-4.90;99.90
46416;DHT22;32620;51.704;7.822;2022-12-18T08:43:07;-5.00;99.90
46416;DHT22;32620;51.704;7.822;2022-12-18T08:45:52;-4.90;99.90
46416;DHT22;32620;51.704;7.822;2022-12-18T08:48:18;-4.40;99.90
46416;DHT22;32620;51.704;7.822;2022-12-18T08:50:43;-4.00;99.90
46416;DHT22;32620;51.704;7.822;2022-12-18T08:53:09;-3.50;99.90
46416;DHT22;32620;51.704;7.822;2022-12-18T08:55:34;-3.20;99.90
46416;DHT22;32620;51.704;7.822;2022-12-18T08:58:00;-3.20;99.90
46416;DHT22;32620;51.704;7.822;2022-12-18T09:00:26;-3.10;99.90
46416;DHT22;32620;51.704;7.822;2022-12-18T09:02:51;-2.90;99.90
46416;DHT22;32620;51.704;7.822;2022-12-18T09:05:17;-2.30;99.90
46416;DHT22;32620;51.704;7.822;2022-12-18T09:07:42;-2.00;99.90
46416;DHT22;32620;51.704;7.822;2022-12-18T09:10:07;-1.70;99.90
46416;DHT22;32620;51.704;7.822;2022-12-18T09:12:33;-1.50;99.90
46416;DHT22;32620;51.704;7.822;2022-12-18T09:14:58;-1.30;99.90
46416;DHT22;32620;51.704;7.822;2022-12-18T09:17:24;-1.70;99.90
46416;DHT22;32620;51.704;7.822;2022-12-18T09:19:49;-2.00;99.90
46416;DHT22;32620;51.704;7.822;2022-12-18T09:22:15;-2.40;99.90
46416;DHT22;32620;51.704;7.822;2022-12-18T09:24:40;-2.50;99.90
46416;DHT22;32620;51.704;7.822;2022-12-18T09:27:06;-2.30;99.90
46416;DHT22;32620;51.704;7.822;2022-12-18T09:29:32;-2.10;99.90
46416;DHT22;32620;51.704;7.822;2022-12-18T09:31:57;-1.20;99.90
46416;DHT22;32620;51.704;7.822;2022-12-18T09:34:23;-0.70;99.90
46416;DHT22;32620;51.704;7.822;2022-12-18T09:36:48;-0.20;99.90
46416;DHT22;32620;51.704;7.822;2022-12-18T09:39:14;0.10;99.90
46416;DHT22;32620;51.704;7.822;2022-12-18T09:41:41;0.10;99.90
46416;DHT22;32620;51.704;7.822;2022-12-18T09:46:51;-0.20;99.90
46416;DHT22;32620;51.704;7.822;2022-12-18T09:49:18;-0.40;99.90
46416;DHT22;32620;51.704;7.822;2022-12-18T09:51:46;-0.50;99.90
46416;DHT22;32620;51.704;7.822;2022-12-18T09:54:14;-0.50;99.90
46416;DHT22;32620;51.704;7.822;2022-12-18T09:56:42;-0.40;99.90
46416;DHT22;32620;51.704;7.822;2022-12-18T09:59:18;0.00;99.90
46416;DHT22;32620;51.704;7.822;2022-12-18T10:01:45;0.20;99.90
46416;DHT22;32620;51.704;7.822;2022-12-18T10:04:10;0.80;99.90
46416;DHT22;32620;51.704;7.822;2022-12-18T10:06:42;1.20;99.90
46416;DHT22;32620;51.704;7.822;2022-12-18T10:09:15;1.80;99.90
46416;DHT22;32620;51.704;7.822;2022-12-18T10:14:34;2.20;99.90
46416;DHT22;32620;51.704;7.822;2022-12-18T10:17:04;2.30;99.90
46416;DHT22;32620;51.704;7.822;2022-12-18T10:19:39;2.30;99.90
46416;DHT22;32620;51.704;7.822;2022-12-18T10:24:54;2.60;99.90
46416;DHT22;32620;51.704;7.822;2022-12-18T10:27:23;2.40;99.90
46416;DHT22;32620;51.704;7.822;2022-12-18T10:29:49;2.60;99.90
46416;DHT22;32620;51.704;7.822;2022-12-18T10:32:18;2.70;99.90
46416;DHT22;32620;51.704;7.822;2022-12-18T10:34:44;2.50;99.90
46416;DHT22;32620;51.704;7.822;2022-12-18T10:37:12;2.50;99.90
46416;DHT22;32620;51.704;7.822;2022-12-18T10:39:39;2.10;99.90
46416;DHT22;32620;51.704;7.822;2022-12-18T10:42:20;1.80;99.90
46416;DHT22;32620;51.704;7.822;2022-12-18T10:44:45;1.60;99.90
46416;DHT22;32620;51.704;7.822;2022-12-18T10:47:12;1.60;99.90
46416;DHT22;32620;51.704;7.822;2022-12-18T10:49:41;1.50;99.90
46416;DHT22;32620;51.704;7.822;2022-12-18T10:52:11;1.40;99.90
46416;DHT22;32620;51.704;7.822;2022-12-18T10:54:39;1.20;99.90
46416;DHT22;32620;51.704;7.822;2022-12-18T10:57:37;1.10;99.90
46416;DHT22;32620;51.704;7.822;2022-12-18T10:59:52;0.80;99.90
46416;DHT22;32620;51.704;7.822;2022-12-18T11:02:34;0.70;99.90
46416;DHT22;32620;51.704;7.822;2022-12-18T11:04:59;0.80;99.90
46416;DHT22;32620;51.704;7.822;2022-12-18T11:07:25;0.70;99.90
46416;DHT22;32620;51.704;7.822;2022-12-18T11:09:59;0.80;99.90
46416;DHT22;32620;51.704;7.822;2022-12-18T11:12:25;0.90;99.90
46416;DHT22;32620;51.704;7.822;2022-12-18T11:14:53;1.00;99.90
46416;DHT22;32620;51.704;7.822;2022-12-18T11:17:31;1.10;99.90
46416;DHT22;32620;51.704;7.822;2022-12-18T11:19:58;1.00;99.90
46416;DHT22;32620;51.704;7.822;2022-12-18T11:22:25;1.00;99.90
46416;DHT22;32620;51.704;7.822;2022-12-18T11:24:59;1.10;99.90
46416;DHT22;32620;51.704;7.822;2022-12-18T11:27:26;1.10;99.90
46416;DHT22;32620;51.704;7.822;2022-12-18T11:29:52;1.00;99.90
46416;DHT22;32620;51.704;7.822;2022-12-18T11:32:21;0.90;99.90
46416;DHT22;32620;51.704;7.822;2022-12-18T11:34:51;0.80;99.90
46416;DHT22;32620;51.704;7.822;2022-12-18T11:37:17;0.80;99.90
46416;DHT22;32620;51.704;7.822;2022-12-18T11:39:45;0.90;99.90
46416;DHT22;32620;51.704;7.822;2022-12-18T11:42:14;0.70;99.90
46416;DHT22;32620;51.704;7.822;2022-12-18T11:44:51;0.60;99.90
46416;DHT22;32620;51.704;7.822;2022-12-18T11:47:27;0.60;99.90
46416;DHT22;32620;51.704;7.822;2022-12-18T11:49:55;0.60;99.90
46416;DHT22;32620;51.704;7.822;2022-12-18T11:52:22;0.60;99.90
46416;DHT22;32620;51.704;7.822;2022-12-18T11:54:52;0.60;99.90
46416;DHT22;32620;51.704;7.822;2022-12-18T11:57:27;0.50;99.90
46416;DHT22;32620;51.704;7.822;2022-12-18T11:59:56;0.40;99.90
46416;DHT22;32620;51.704;7.822;2022-12-18T12:02:32;0.50;99.90
46416;DHT22;32620;51.704;7.822;2022-12-18T12:05:20;0.40;99.90
46416;DHT22;32620;51.704;7.822;2022-12-18T12:16:06;0.40;99.90
46416;DHT22;32620;51.704;7.822;2022-12-18T12:18:45;0.30;99.90
46416;DHT22;32620;51.704;7.822;2022-12-18T12:21:22;0.30;99.90
46416;DHT22;32620;51.704;7.822;2022-12-18T12:24:10;0.20;99.90
46416;DHT22;32620;51.704;7.822;2022-12-18T12:29:25;0.20;99.90
46416;DHT22;32620;51.704;7.822;2022-12-18T12:34:26;0.10;99.90
46416;DHT22;32620;51.704;7.822;2022-12-18T12:36:56;0.20;99.90
46416;DHT22;32620;51.704;7.822;2022-12-18T12:39:29;0.10;99.90
46416;DHT22;32620;51.704;7.822;2022-12-18T12:41:55;0.10;99.90
46416;DHT22;32620;51.704;7.822;2022-12-18T12:44:43;0.00;99.90
46416;DHT22;32620;51.704;7.822;2022-12-18T12:47:13;0.00;99.90
46416;DHT22;32620;51.704;7.822;2022-12-18T12:49:39;0.00;99.90
46416;DHT22;32620;51.704;7.822;2022-12-18T12:52:07;0.00;99.90
46416;DHT22;32620;51.704;7.822;2022-12-18T12:54:35;-0.10;99.90
46416;DHT22;32620;51.704;7.822;2022-12-18T12:57:04;-0.10;99.90
46416;DHT22;32620;51.704;7.822;2022-12-18T12:59:45;-0.10;99.90
46416;DHT22;32620;51.704;7.822;2022-12-18T13:02:29;-0.10;99.90
46416;DHT22;32620;51.704;7.822;2022-12-18T13:05:00;-0.10;99.90
46416;DHT22;32620;51.704;7.822;2022-12-18T13:10:22;0.00;99.90
46416;DHT22;32620;51.704;7.822;2022-12-18T13:13:19;0.10;99.90
46416;DHT22;32620;51.704;7.822;2022-12-18T13:15:42;0.00;99.90
46416;DHT22;32620;51.704;7.822;2022-12-18T13:20:48;0.00;99.90
46416;DHT22;32620;51.704;7.822;2022-12-18T13:23:45;0.00;99.90
46416;DHT22;32620;51.704;7.822;2022-12-18T13:26:00;0.00;99.90
46416;DHT22;32620;51.704;7.822;2022-12-18T13:34:16;0.00;99.90
46416;DHT22;32620;51.704;7.822;2022-12-18T13:36:42;0.00;99.90
46416;DHT22;32620;51.704;7.822;2022-12-18T13:39:10;-0.10;99.90
46416;DHT22;32620;51.704;7.822;2022-12-18T13:41:36;-0.10;99.90
46416;DHT22;32620;51.704;7.822;2022-12-18T13:46:47;-0.10;99.90
46416;DHT22;32620;51.704;7.822;2022-12-18T13:51:52;0.00;99.90
46416;DHT22;32620;51.704;7.822;2022-12-18T13:54:22;0.00;99.90
46416;DHT22;32620;51.704;7.822;2022-12-18T13:56:49;0.00;99.90
46416;DHT22;32620;51.704;7.822;2022-12-18T13:59:19;0.10;99.90
46416;DHT22;32620;51.704;7.822;2022-12-18T14:04:30;0.00;99.90
46416;DHT22;32620;51.704;7.822;2022-12-18T14:07:12;0.00;99.90
46416;DHT22;32620;51.704;7.822;2022-12-18T14:09:42;0.00;99.90
46416;DHT22;32620;51.704;7.822;2022-12-18T14:12:17;-0.10;99.90
46416;DHT22;32620;51.704;7.822;2022-12-18T14:15:03;-0.10;99.90
46416;DHT22;32620;51.704;7.822;2022-12-18T14:17:30;-0.10;99.90
46416;DHT22;32620;51.704;7.822;2022-12-18T14:19:56;-0.10;99.90
46416;DHT22;32620;51.704;7.822;2022-12-18T14:22:24;-0.20;99.90
46416;DHT22;32620;51.704;7.822;2022-12-18T14:25:26;-0.20;99.90
46416;DHT22;32620;51.704;7.822;2022-12-18T14:27:42;-0.30;99.90
46416;DHT22;32620;51.704;7.822;2022-12-18T14:30:31;-0.30;99.90
46416;DHT22;32620;51.704;7.822;2022-12-18T14:33:01;-0.40;99.90
46416;DHT22;32620;51.704;7.822;2022-12-18T14:35:26;-0.40;99.90
46416;DHT22;32620;51.704;7.822;2022-12-18T14:37:52;-0.40;99.90
46416;DHT22;32620;51.704;7.822;2022-12-18T14:40:17;-0.40;99.90
46416;DHT22;32620;51.704;7.822;2022-12-18T14:42:43;-0.40;99.90
46416;DHT22;32620;51.704;7.822;2022-12-18T14:47:54;-0.40;99.90
46416;DHT22;32620;51.704;7.822;2022-12-18T14:50:19;-0.50;99.90
46416;DHT22;32620;51.704;7.822;2022-12-18T14:52:45;-0.50;99.90
46416;DHT22;32620;51.704;7.822;2022-12-18T14:55:18;-0.50;99.90
46416;DHT22;32620;51.704;7.822;2022-12-18T14:57:45;-0.60;99.90
46416;DHT22;32620;51.704;7.822;2022-12-18T15:00:22;-0.60;99.90
46416;DHT22;32620;51.704;7.822;2022-12-18T15:02:50;-0.60;99.90
46416;DHT22;32620;51.704;7.822;2022-12-18T15:05:19;-0.70;99.90
46416;DHT22;32620;51.704;7.822;2022-12-18T15:07:45;-0.70;99.90
46416;DHT22;32620;51.704;7.822;2022-12-18T15:10:14;-0.70;99.90
46416;DHT22;32620;51.704;7.822;2022-12-18T15:12:42;-0.70;99.90
46416;DHT22;32620;51.704;7.822;2022-12-18T15:17:56;-0.60;99.90
46416;DHT22;32620;51.704;7.822;2022-12-18T15:20:22;-0.70;99.90
46416;DHT22;32620;51.704;7.822;2022-12-18T15:22:47;-0.60;99.90
46416;DHT22;32620;51.704;7.822;2022-12-18T15:25:32;-0.60;99.90
46416;DHT22;32620;51.704;7.822;2022-12-18T15:27:58;-0.60;99.90
46416;DHT22;32620;51.704;7.822;2022-12-18T15:30:24;-0.60;99.90
46416;DHT22;32620;51.704;7.822;2022-12-18T15:32:50;-0.60;99.90
46416;DHT22;32620;51.704;7.822;2022-12-18T15:35:18;-0.60;99.90
46416;DHT22;32620;51.704;7.822;2022-12-18T15:37:44;-0.60;99.90
46416;DHT22;32620;51.704;7.822;2022-12-18T15:40:11;-0.60;99.90
46416;DHT22;32620;51.704;7.822;2022-12-18T15:42:37;-0.60;99.90
46416;DHT22;32620;51.704;7.822;2022-12-18T15:45:23;-0.50;99.90
46416;DHT22;32620;51.704;7.822;2022-12-18T15:47:48;-0.50;99.90
46416;DHT22;32620;51.704;7.822;2022-12-18T15:50:14;-0.40;99.90
46416;DHT22;32620;51.704;7.822;2022-12-18T15:52:40;-0.40;99.90
46416;DHT22;32620;51.704;7.822;2022-12-18T15:55:18;-0.40;99.90
46416;DHT22;32620;51.704;7.822;2022-12-18T15:58:04;-0.40;99.90
46416;DHT22;32620;51.704;7.822;2022-12-18T16:00:30;-0.30;99.90
46416;DHT22;32620;51.704;7.822;2022-12-18T16:02:55;-0.30;99.90
46416;DHT22;32620;51.704;7.822;2022-12-18T16:05:21;-0.30;99.90
46416;DHT22;32620;51.704;7.822;2022-12-18T16:07:47;-0.30;99.90
46416;DHT22;32620;51.704;7.822;2022-12-18T16:10:13;-0.30;99.90
46416;DHT22;32620;51.704;7.822;2022-12-18T16:12:38;-0.30;99.90
46416;DHT22;32620;51.704;7.822;2022-12-18T16:15:04;-0.30;99.90
46416;DHT22;32620;51.704;7.822;2022-12-18T16:17:30;-0.30;99.90
46416;DHT22;32620;51.704;7.822;2022-12-18T16:19:56;-0.20;99.90
46416;DHT22;32620;51.704;7.822;2022-12-18T16:22:22;-0.30;99.90
46416;DHT22;32620;51.704;7.822;2022-12-18T16:24:49;-0.20;99.90
46416;DHT22;32620;51.704;7.822;2022-12-18T16:27:14;-0.20;99.90
46416;DHT22;32620;51.704;7.822;2022-12-18T16:29:40;-0.20;99.90
46416;DHT22;32620;51.704;7.822;2022-12-18T16:32:05;-0.20;99.90
46416;DHT22;32620;51.704;7.822;2022-12-18T16:34:31;-0.20;99.90
46416;DHT22;32620;51.704;7.822;2022-12-18T16:36:59;-0.20;99.90
46416;DHT22;32620;51.704;7.822;2022-12-18T16:39:25;-0.20;99.90
46416;DHT22;32620;51.704;7.822;2022-12-18T16:41:51;-0.20;99.90